createdAt,value
2018-06-12T00:00:46.288Z,9.25
2018-06-12T00:01:50.657Z,8.93
2018-06-12T00:02:55.228Z,10.10
2018-06-12T00:03:59.736Z,9.35
2018-06-12T00:05:04.978Z,9.10
2018-06-12T00:06:09.279Z,9.10
2018-06-12T00:07:13.726Z,8.63
2018-06-12T00:08:17.618Z,9.40
2018-06-12T00:09:21.234Z,9.05
2018-06-12T00:10:25.495Z,9.83
2018-06-12T00:11:30.228Z,9.23
2018-06-12T00:12:34.320Z,8.83
2018-06-12T00:13:38.462Z,8.78
2018-06-12T00:14:43.145Z,8.65
2018-06-12T00:15:47.791Z,7.80
2018-06-12T00:16:52.431Z,9.05
2018-06-12T00:17:57.571Z,8.23
2018-06-12T00:19:03.007Z,7.92
2018-06-12T00:20:07.390Z,7.97
2018-06-12T00:21:11.883Z,8.43
2018-06-12T00:22:16.304Z,7.70
2018-06-12T00:23:20.785Z,8.05
2018-06-12T00:24:25.004Z,6.90
2018-06-12T00:25:29.395Z,7.10
2018-06-12T00:26:33.900Z,8.83
2018-06-12T00:27:38.358Z,8.65
2018-06-12T00:28:43.330Z,7.80
2018-06-12T00:29:48.219Z,6.97
2018-06-12T00:30:53.155Z,7.65
2018-06-12T00:31:57.623Z,7.80
2018-06-12T00:33:02.078Z,7.92
2018-06-12T00:34:06.556Z,7.35
2018-06-12T00:35:11.039Z,8.33
2018-06-12T00:36:15.314Z,6.78
2018-06-12T00:37:19.697Z,7.55
2018-06-12T00:38:24.050Z,7.60
2018-06-12T00:39:28.402Z,8.00
2018-06-12T00:40:32.852Z,8.13
2018-06-12T00:41:37.381Z,7.55
2018-06-12T00:42:41.769Z,7.87
2018-06-12T00:43:46.203Z,7.42
2018-06-12T00:44:50.657Z,7.50
2018-06-12T00:45:55.211Z,6.60
2018-06-12T00:46:59.687Z,7.62
2018-06-12T00:48:04.325Z,8.63
2018-06-12T00:49:09.202Z,6.85
2018-06-12T00:50:13.824Z,6.92
2018-06-12T00:51:18.213Z,7.50
2018-06-12T00:52:22.784Z,7.15
2018-06-12T00:53:27.258Z,6.70
2018-06-12T00:54:32.427Z,6.92
2018-06-12T00:55:36.904Z,7.05
2018-06-12T00:56:52.163Z,8.00
2018-06-12T00:57:56.600Z,8.13
2018-06-12T00:59:01.103Z,7.65
2018-06-12T01:00:05.734Z,8.00
2018-06-12T01:01:10.965Z,7.28
2018-06-12T01:02:15.460Z,8.90
2018-06-12T01:03:19.915Z,7.70
2018-06-12T01:04:24.083Z,7.72
2018-06-12T01:05:28.357Z,7.40
2018-06-12T01:06:32.591Z,7.47
2018-06-12T01:07:36.789Z,8.10
2018-06-12T01:08:41.012Z,7.85
2018-06-12T01:09:45.198Z,8.13
2018-06-12T01:10:49.437Z,7.30
2018-06-12T01:11:54.204Z,8.08
2018-06-12T01:12:58.611Z,8.10
2018-06-12T01:14:02.737Z,8.10
2018-06-12T01:15:07.417Z,9.30
2018-06-12T01:16:12.101Z,8.78
2018-06-12T01:17:15.836Z,7.80
2018-06-12T01:18:20.381Z,8.45
2018-06-12T01:19:24.571Z,8.30
2018-06-12T01:20:29.099Z,7.05
2018-06-12T01:21:33.464Z,9.05
2018-06-12T01:22:37.256Z,7.87
2018-06-12T01:23:41.580Z,8.30
2018-06-12T01:24:45.991Z,7.95
2018-06-12T01:25:50.189Z,7.83
2018-06-12T01:26:54.402Z,8.13
2018-06-12T01:27:58.056Z,8.20
2018-06-12T01:29:02.603Z,7.45
2018-06-12T01:30:07.525Z,8.35
2018-06-12T01:31:11.474Z,8.30
2018-06-12T01:32:15.821Z,8.03
2018-06-12T01:33:20.113Z,9.45
2018-06-12T01:34:24.354Z,8.28
2018-06-12T01:35:28.867Z,7.58
2018-06-12T01:36:33.543Z,8.05
2018-06-12T01:37:38.179Z,9.30
2018-06-12T01:38:42.441Z,9.65
2018-06-12T01:39:46.719Z,8.80
2018-06-12T01:40:51.101Z,8.93
2018-06-12T01:41:55.518Z,8.23
2018-06-12T01:42:59.942Z,8.63
2018-06-12T01:44:04.170Z,9.25
2018-06-12T01:45:08.637Z,8.70
2018-06-12T01:46:12.996Z,7.78
2018-06-12T01:47:17.370Z,8.00
2018-06-12T01:48:21.475Z,8.53
2018-06-12T01:49:25.575Z,9.03
2018-06-12T01:50:29.642Z,7.85
2018-06-12T01:51:34.083Z,7.75
2018-06-12T01:52:38.462Z,8.93
2018-06-12T01:53:42.976Z,8.90
2018-06-12T01:54:47.834Z,8.45
2018-06-12T01:55:52.285Z,10.95
2018-06-12T01:56:56.151Z,8.45
2018-06-12T01:58:00.674Z,10.58
2018-06-12T01:59:05.099Z,8.83
2018-06-12T02:00:09.490Z,8.68
2018-06-12T02:01:13.714Z,9.25
2018-06-12T02:02:17.982Z,8.65
2018-06-12T02:03:21.687Z,9.10
2018-06-12T02:04:25.924Z,8.85
2018-06-12T02:05:30.083Z,9.18
2018-06-12T02:06:33.842Z,10.38
2018-06-12T02:07:38.099Z,8.30
2018-06-12T02:08:42.488Z,9.00
2018-06-12T02:09:46.951Z,10.03
2018-06-12T02:10:51.541Z,8.70
2018-06-12T02:11:55.962Z,9.73
2018-06-12T02:13:39.056Z,9.78
2018-06-12T02:14:43.504Z,9.53
2018-06-12T02:15:49.011Z,10.15
2018-06-12T02:16:53.524Z,10.20
2018-06-12T02:17:58.082Z,10.20
2018-06-12T02:19:02.536Z,10.00
2018-06-12T02:20:06.928Z,9.33
2018-06-12T02:21:11.194Z,9.88
2018-06-12T02:22:15.422Z,9.38
2018-06-12T02:23:19.597Z,10.78
2018-06-12T02:24:23.802Z,10.85
2018-06-12T02:25:27.957Z,10.53
2018-06-12T02:26:32.582Z,10.30
2018-06-12T02:27:37.203Z,10.50
2018-06-12T02:28:41.558Z,10.00
2018-06-12T02:29:45.944Z,10.00
2018-06-12T02:30:50.185Z,10.72
2018-06-12T02:31:54.949Z,9.98
2018-06-12T02:32:59.132Z,10.18
2018-06-12T02:34:03.302Z,10.10
2018-06-12T02:35:07.664Z,9.70
2018-06-12T02:36:12.075Z,11.10
2018-06-12T02:37:15.989Z,10.90
2018-06-12T02:38:20.252Z,11.25
2018-06-12T02:39:24.448Z,11.10
2018-06-12T02:40:28.945Z,9.60
2018-06-12T02:41:33.473Z,10.48
2018-06-12T02:42:37.891Z,11.25
2018-06-12T02:43:42.369Z,9.55
2018-06-12T02:44:47.313Z,10.00
2018-06-12T02:45:51.816Z,10.68
2018-06-12T02:46:56.366Z,11.60
2018-06-12T02:48:00.855Z,11.35
2018-06-12T02:49:05.305Z,11.68
2018-06-12T02:50:09.896Z,10.78
2018-06-12T02:51:14.633Z,11.48
2018-06-12T02:52:19.041Z,10.70
2018-06-12T02:53:23.544Z,10.90
2018-06-12T02:54:27.936Z,10.95
2018-06-12T02:55:32.457Z,11.55
2018-06-12T02:56:36.865Z,11.88
2018-06-12T02:57:41.866Z,11.75
2018-06-12T02:58:46.324Z,11.73
2018-06-12T02:59:50.728Z,11.88
2018-06-12T03:00:55.165Z,11.93
2018-06-12T03:02:01.544Z,11.95
2018-06-12T03:03:06.658Z,10.80
2018-06-12T03:04:11.210Z,11.45
2018-06-12T03:05:15.690Z,11.25
2018-06-12T03:06:20.157Z,11.05
2018-06-12T03:07:24.716Z,11.80
2018-06-12T03:08:29.536Z,12.85
2018-06-12T03:09:34.075Z,11.70
2018-06-12T03:10:39.264Z,10.90
2018-06-12T03:11:43.684Z,11.45
2018-06-12T03:12:48.020Z,12.15
2018-06-12T03:13:52.580Z,9.93
2018-06-12T03:14:56.963Z,12.43
2018-06-12T03:16:01.285Z,11.78
2018-06-12T03:17:05.171Z,11.20
2018-06-12T03:18:09.876Z,11.88
2018-06-12T03:19:14.439Z,11.20
2018-06-12T03:20:22.270Z,12.40
2018-06-12T03:21:26.799Z,12.43
2018-06-12T03:22:31.338Z,11.83
2018-06-12T03:23:35.775Z,11.30
2018-06-12T03:24:40.037Z,12.40
2018-06-12T03:25:43.727Z,12.82
2018-06-12T03:26:48.267Z,12.33
2018-06-12T03:27:52.457Z,12.63
2018-06-12T03:28:56.737Z,12.30
2018-06-12T03:30:00.977Z,11.53
2018-06-12T03:31:05.227Z,13.48
2018-06-12T03:32:09.501Z,11.40
2018-06-12T03:33:13.866Z,13.40
2018-06-12T03:34:18.050Z,12.60
2018-06-12T03:35:22.305Z,11.93
2018-06-12T03:36:26.688Z,13.62
2018-06-12T03:37:30.813Z,14.38
2018-06-12T03:38:35.109Z,17.15
2018-06-12T03:39:39.280Z,14.23
2018-06-12T03:40:43.473Z,12.47
2018-06-12T03:41:47.680Z,13.08
2018-06-12T03:42:52.199Z,13.83
2018-06-12T03:43:56.807Z,14.07
2018-06-12T03:45:01.310Z,14.00
2018-06-12T03:46:05.846Z,13.75
2018-06-12T03:47:10.481Z,13.10
2018-06-12T03:48:14.408Z,14.18
2018-06-12T03:49:19.119Z,15.18
2018-06-12T03:50:23.582Z,14.50
2018-06-12T03:51:28.030Z,13.68
2018-06-12T03:52:32.533Z,15.10
2018-06-12T03:53:37.473Z,14.43
2018-06-12T03:54:41.874Z,14.10
2018-06-12T03:55:46.300Z,14.20
2018-06-12T03:56:50.785Z,15.72
2018-06-12T03:57:55.327Z,15.40
2018-06-12T03:59:00.121Z,15.63
2018-06-12T04:00:05.396Z,15.83
2018-06-12T04:01:09.616Z,15.20
2018-06-12T04:02:14.019Z,15.63
2018-06-12T04:03:17.994Z,14.75
2018-06-12T04:04:22.295Z,15.63
2018-06-12T04:05:26.588Z,14.70
2018-06-12T04:06:30.383Z,16.73
2018-06-12T04:07:34.607Z,15.60
2018-06-12T04:08:38.993Z,16.65
2018-06-12T04:09:43.516Z,15.25
2018-06-12T04:10:48.949Z,15.08
2018-06-12T04:11:53.678Z,17.65
2018-06-12T04:13:05.169Z,17.10
2018-06-12T04:14:09.834Z,16.67
2018-06-12T04:15:14.376Z,15.93
2018-06-12T04:16:18.852Z,16.30
2018-06-12T04:17:23.204Z,17.25
2018-06-12T04:18:29.139Z,15.45
2018-06-12T04:19:33.677Z,15.88
2018-06-12T04:20:38.513Z,15.58
2018-06-12T04:21:42.755Z,17.15
2018-06-12T04:22:47.013Z,18.80
2018-06-12T04:23:51.221Z,16.45
2018-06-12T04:24:55.427Z,16.73
2018-06-12T04:25:59.549Z,18.30
2018-06-12T04:27:05.333Z,16.07
2018-06-12T04:28:09.554Z,18.05
2018-06-12T04:29:13.932Z,16.95
2018-06-12T04:30:18.476Z,15.32
2018-06-12T04:31:23.075Z,15.20
2018-06-12T04:32:27.657Z,17.92
2018-06-12T04:33:32.092Z,16.48
2018-06-12T04:34:36.481Z,16.05
2018-06-12T04:35:40.874Z,17.10
2018-06-12T04:36:45.333Z,18.10
2018-06-12T04:37:49.743Z,17.42
2018-06-12T04:38:54.163Z,16.37
2018-06-12T04:39:58.363Z,16.97
2018-06-12T04:41:02.621Z,16.67
2018-06-12T04:42:06.855Z,18.95
2018-06-12T04:43:16.424Z,18.12
2018-06-12T04:44:20.638Z,17.70
2018-06-12T04:45:25.243Z,16.82
2018-06-12T04:46:29.447Z,17.27
2018-06-12T04:47:33.768Z,18.42
2018-06-12T04:48:38.051Z,17.07
2018-06-12T04:49:49.550Z,16.80
2018-06-12T04:50:54.412Z,17.40
2018-06-12T04:51:58.875Z,15.43
2018-06-12T04:53:03.333Z,16.40
2018-06-12T04:54:07.802Z,17.15
2018-06-12T04:55:18.019Z,18.25
2018-06-12T04:56:22.508Z,17.42
2018-06-12T04:57:27.342Z,20.30
2018-06-12T04:58:31.574Z,19.07
2018-06-12T04:59:36.057Z,17.55
2018-06-12T05:00:39.902Z,17.98
2018-06-12T05:01:44.363Z,16.90
2018-06-12T05:02:48.902Z,17.25
2018-06-12T05:03:53.431Z,16.32
2018-06-12T05:04:57.898Z,17.57
2018-06-12T05:06:02.601Z,17.67
2018-06-12T05:07:06.944Z,17.60
2018-06-12T05:08:11.196Z,15.80
2018-06-12T05:09:15.509Z,16.42
2018-06-12T05:10:19.791Z,16.60
2018-06-12T05:11:24.088Z,16.75
2018-06-12T05:12:28.368Z,16.57
2018-06-12T05:13:32.876Z,16.75
2018-06-12T05:14:37.210Z,15.38
2018-06-12T05:15:41.402Z,15.63
2018-06-12T05:16:45.751Z,16.12
2018-06-12T05:17:50.102Z,15.08
2018-06-12T05:18:54.368Z,16.85
2018-06-12T05:19:58.610Z,15.43
2018-06-12T05:21:02.968Z,15.10
2018-06-12T05:22:07.373Z,16.90
2018-06-12T05:23:11.626Z,14.90
2018-06-12T05:24:15.892Z,16.20
2018-06-12T05:25:20.195Z,17.57
2018-06-12T05:26:24.495Z,16.93
2018-06-12T05:27:28.798Z,16.97
2018-06-12T05:28:33.051Z,16.65
2018-06-12T05:29:39.991Z,16.40
2018-06-12T05:30:45.539Z,17.95
2018-06-12T05:32:01.632Z,16.40
2018-06-12T05:33:06.825Z,13.72
2018-06-12T05:34:14.106Z,13.30
2018-06-12T05:35:19.449Z,13.93
2018-06-12T05:36:24.053Z,15.55
2018-06-12T05:37:31.084Z,14.05
2018-06-12T05:38:36.464Z,15.83
2018-06-12T05:39:49.169Z,15.98
2018-06-12T05:40:54.090Z,16.27
2018-06-12T05:41:59.963Z,15.30
2018-06-12T05:43:05.098Z,15.45
2018-06-12T05:44:12.235Z,13.72
2018-06-12T05:45:16.645Z,13.60
2018-06-12T05:46:21.563Z,13.55
2018-06-12T05:47:25.567Z,12.63
2018-06-12T05:48:30.042Z,14.23
2018-06-12T05:49:34.659Z,12.55
2018-06-12T05:50:51.852Z,14.18
2018-06-12T05:52:00.347Z,14.53
2018-06-12T05:53:05.400Z,13.20
2018-06-12T05:54:09.629Z,14.98
2018-06-12T05:55:18.658Z,15.08
2018-06-12T05:56:26.697Z,14.05
2018-06-12T05:57:36.467Z,15.30
2018-06-12T05:58:43.873Z,15.45
2018-06-12T05:59:48.170Z,12.85
2018-06-12T06:00:53.552Z,13.95
2018-06-12T06:02:04.289Z,14.43
2018-06-12T06:03:17.813Z,13.22
2018-06-12T06:04:23.748Z,13.20
2018-06-12T06:05:29.654Z,13.38
2018-06-12T06:06:36.766Z,13.40
2018-06-12T06:07:45.165Z,13.15
2018-06-12T06:08:49.855Z,14.00
2018-06-12T06:09:54.280Z,13.65
2018-06-12T06:10:59.133Z,13.40
2018-06-12T06:12:03.945Z,14.40
2018-06-12T06:13:08.990Z,12.40
2018-06-12T06:14:14.081Z,12.95
2018-06-12T06:15:18.589Z,14.05
2018-06-12T06:16:22.927Z,13.98
2018-06-12T06:17:28.289Z,12.90
2018-06-12T06:19:35.999Z,12.73
2018-06-12T06:20:41.291Z,12.20
2018-06-12T06:21:46.529Z,13.22
2018-06-12T06:22:52.638Z,13.15
2018-06-12T06:23:57.141Z,13.15
2018-06-12T06:25:01.025Z,12.45
2018-06-12T06:26:06.178Z,13.50
2018-06-12T06:27:10.764Z,13.15
2018-06-12T06:28:15.922Z,13.35
2018-06-12T06:29:21.671Z,15.05
2018-06-12T06:30:31.402Z,13.48
2018-06-12T06:31:35.289Z,13.03
2018-06-12T06:32:39.820Z,12.95
2018-06-12T06:33:43.689Z,12.43
2018-06-12T06:34:48.613Z,12.85
2018-06-12T06:35:53.266Z,13.95
2018-06-12T06:36:58.156Z,13.72
2018-06-12T06:38:02.762Z,12.20
2018-06-12T06:39:08.853Z,12.37
2018-06-12T06:40:13.407Z,11.70
2018-06-12T06:41:17.884Z,12.15
2018-06-12T06:42:22.292Z,13.15
2018-06-12T06:43:26.893Z,12.25
2018-06-12T06:44:31.570Z,11.75
2018-06-12T06:45:37.629Z,12.60
2018-06-12T06:48:16.979Z,11.48
2018-06-12T06:49:21.480Z,11.20
2018-06-12T06:50:26.501Z,11.88
2018-06-12T06:51:31.025Z,10.30
2018-06-12T06:52:36.732Z,11.38
2018-06-12T06:53:41.249Z,11.48
2018-06-12T06:54:46.328Z,12.13
2018-06-12T06:55:51.396Z,13.03
2018-06-12T06:56:56.092Z,12.58
2018-06-12T06:58:05.392Z,11.18
2018-06-12T06:59:10.025Z,11.22
2018-06-12T07:00:14.720Z,11.50
2018-06-12T07:01:19.210Z,12.65
2018-06-12T07:02:23.599Z,11.55
2018-06-12T07:03:34.864Z,11.93
2018-06-12T07:04:39.449Z,11.60
2018-06-12T07:05:43.972Z,11.20
2018-06-12T07:06:48.520Z,12.80
2018-06-12T07:07:52.972Z,10.63
2018-06-12T07:08:57.527Z,10.72
2018-06-12T07:10:02.295Z,11.53
2018-06-12T07:11:06.757Z,10.93
2018-06-12T07:12:11.174Z,11.95
2018-06-12T07:13:15.865Z,12.23
2018-06-12T07:14:20.130Z,12.58
2018-06-12T07:15:24.615Z,11.88
2018-06-12T07:16:30.363Z,10.53
2018-06-12T07:17:34.660Z,11.50
2018-06-12T07:18:48.159Z,10.78
2018-06-12T07:19:52.375Z,11.50
2018-06-12T07:21:07.536Z,11.20
2018-06-12T07:22:12.274Z,11.57
2018-06-12T07:23:16.495Z,11.25
2018-06-12T07:24:21.813Z,10.95
2018-06-12T07:25:38.656Z,13.15
2018-06-12T07:26:48.100Z,9.60
2018-06-12T07:28:26.298Z,9.98
2018-06-12T07:29:31.725Z,11.35
2018-06-12T07:30:37.848Z,10.88
2018-06-12T07:31:42.180Z,11.40
2018-06-12T07:32:46.673Z,10.98
2018-06-12T07:33:51.120Z,12.07
2018-06-12T07:34:57.147Z,11.50
2018-06-12T07:36:01.654Z,12.25
2018-06-12T07:37:06.989Z,10.78
2018-06-12T07:38:11.322Z,10.68
2018-06-12T07:39:15.719Z,10.23
2018-06-12T07:40:20.946Z,11.95
2018-06-12T07:41:25.192Z,11.18
2018-06-12T07:42:29.570Z,10.32
2018-06-12T07:43:34.262Z,11.80
2018-06-12T07:44:38.665Z,39.38
2018-06-12T07:45:43.151Z,11.88
2018-06-12T07:46:47.993Z,9.88
2018-06-12T07:48:00.537Z,10.32
2018-06-12T07:49:16.786Z,8.95
2018-06-12T07:50:23.375Z,10.25
2018-06-12T07:51:57.462Z,9.65
2018-06-12T07:53:29.735Z,10.13
2018-06-12T07:56:02.085Z,10.65
2018-06-12T07:57:07.042Z,10.45
2018-06-12T07:58:13.648Z,10.45
2018-06-12T07:59:18.614Z,9.20
2018-06-12T08:00:25.341Z,10.15
2018-06-12T08:01:29.974Z,10.98
2018-06-12T08:02:34.564Z,10.43
2018-06-12T08:03:57.463Z,9.75
2018-06-12T08:05:10.648Z,9.50
2018-06-12T08:06:44.382Z,9.83
2018-06-12T08:07:49.283Z,10.95
2018-06-12T08:08:53.556Z,10.23
2018-06-12T08:09:58.064Z,10.30
2018-06-12T08:11:02.233Z,13.45
2018-06-12T08:12:06.594Z,8.90
2018-06-12T08:13:10.809Z,9.70
2018-06-12T08:14:15.035Z,9.30
2018-06-12T08:15:19.261Z,10.30
2018-06-12T08:16:23.457Z,10.32
2018-06-12T08:17:28.674Z,11.57
2018-06-12T08:18:36.809Z,10.30
2018-06-12T08:19:41.089Z,11.10
2018-06-12T08:20:45.401Z,10.70
2018-06-12T08:21:49.564Z,8.60
2018-06-12T08:22:53.809Z,10.90
2018-06-12T08:23:58.049Z,11.75
2018-06-12T08:25:02.392Z,11.65
2018-06-12T08:26:06.728Z,10.60
2018-06-12T08:27:11.220Z,10.45
2018-06-12T08:28:16.072Z,10.80
2018-06-12T08:29:38.578Z,8.70
2018-06-12T08:30:44.314Z,11.60
2018-06-12T08:31:48.757Z,9.75
2018-06-12T08:32:53.203Z,12.70
2018-06-12T08:33:57.656Z,11.90
2018-06-12T08:35:02.701Z,10.08
2018-06-12T08:36:07.280Z,10.18
2018-06-12T08:37:11.706Z,11.85
2018-06-12T08:38:16.340Z,9.98
2018-06-12T08:39:20.796Z,9.58
2018-06-12T08:40:25.293Z,10.90
2018-06-12T08:41:30.165Z,9.53
2018-06-12T08:42:34.661Z,9.30
2018-06-12T08:43:39.084Z,11.00
2018-06-12T08:44:44.064Z,9.80
2018-06-12T08:45:48.663Z,10.23
2018-06-12T08:46:53.127Z,8.95
2018-06-12T08:47:58.006Z,9.40
2018-06-12T08:49:02.537Z,10.00
2018-06-12T08:50:08.525Z,9.55
2018-06-12T08:51:18.783Z,9.85
2018-06-12T08:52:23.910Z,10.85
2018-06-12T08:53:28.508Z,9.60
2018-06-12T08:54:33.432Z,9.68
2018-06-12T08:55:37.774Z,8.83
2018-06-12T08:56:42.028Z,9.20
2018-06-12T08:57:46.241Z,9.83
2018-06-12T08:58:49.996Z,9.15
2018-06-12T08:59:54.549Z,8.60
2018-06-12T09:00:59.469Z,7.85
2018-06-12T09:02:03.988Z,9.65
2018-06-12T09:03:08.538Z,8.83
2018-06-12T09:04:12.950Z,9.73
2018-06-12T09:05:17.337Z,8.00
2018-06-12T09:06:21.884Z,9.30
2018-06-12T09:07:26.265Z,8.35
2018-06-12T09:08:30.132Z,8.93
2018-06-12T09:09:34.858Z,9.13
2018-06-12T09:10:39.353Z,9.68
2018-06-12T09:11:43.932Z,9.15
2018-06-12T09:12:49.904Z,8.25
2018-06-12T09:13:54.902Z,9.70
2018-06-12T09:14:59.507Z,9.55
2018-06-12T09:16:04.528Z,8.85
2018-06-12T09:17:08.702Z,9.63
2018-06-12T09:18:41.670Z,8.40
2018-06-12T09:19:46.015Z,9.55
2018-06-12T09:20:49.769Z,8.55
2018-06-12T09:21:54.082Z,8.20
2018-06-12T09:22:58.532Z,9.53
2018-06-12T09:24:02.750Z,8.55
2018-06-12T09:25:07.171Z,9.10
2018-06-12T09:26:11.427Z,8.93
2018-06-12T09:27:15.928Z,9.10
2018-06-12T09:28:20.216Z,9.13
2018-06-12T09:29:24.479Z,10.58
2018-06-12T09:30:28.727Z,9.48
2018-06-12T09:31:33.280Z,8.68
2018-06-12T09:32:37.155Z,8.73
2018-06-12T09:33:41.100Z,9.35
2018-06-12T09:34:45.574Z,8.85
2018-06-12T09:35:50.124Z,10.63
2018-06-12T09:36:54.643Z,9.18
2018-06-12T09:37:59.386Z,9.08
2018-06-12T09:39:06.708Z,9.35
2018-06-12T09:40:11.193Z,9.30
2018-06-12T09:41:15.787Z,9.30
2018-06-12T09:42:20.268Z,7.70
2018-06-12T09:43:24.671Z,8.50
2018-06-12T09:44:29.092Z,8.68
2018-06-12T09:45:33.784Z,10.00
2018-06-12T09:46:37.664Z,9.05
2018-06-12T09:47:42.118Z,9.45
2018-06-12T09:48:46.894Z,9.08
2018-06-12T09:49:50.778Z,10.20
2018-06-12T09:50:55.241Z,9.60
2018-06-12T09:51:59.936Z,8.73
2018-06-12T09:53:03.738Z,8.95
2018-06-12T09:54:08.344Z,9.95
2018-06-12T09:55:12.751Z,10.32
2018-06-12T09:56:17.285Z,9.48
2018-06-12T09:57:21.752Z,9.98
2018-06-12T09:58:26.182Z,9.10
2018-06-12T09:59:31.703Z,8.85
2018-06-12T10:00:41.264Z,10.40
2018-06-12T10:01:45.760Z,9.20
2018-06-12T10:02:50.055Z,9.68
2018-06-12T10:03:54.587Z,8.53
2018-06-12T10:04:58.868Z,8.45
2018-06-12T10:06:03.071Z,9.33
2018-06-12T10:07:07.518Z,8.53
2018-06-12T10:08:12.122Z,9.95
2018-06-12T10:09:16.565Z,9.03
2018-06-12T10:10:20.772Z,10.18
2018-06-12T10:11:24.986Z,8.93
2018-06-12T10:12:29.256Z,9.30
2018-06-12T10:13:33.599Z,9.25
2018-06-12T10:14:38.073Z,8.45
2018-06-12T10:15:42.279Z,9.68
2018-06-12T10:16:46.069Z,8.83
2018-06-12T10:17:50.467Z,9.33
2018-06-12T10:18:54.820Z,8.65
2018-06-12T10:19:59.375Z,9.10
2018-06-12T10:21:04.556Z,9.05
2018-06-12T10:22:09.513Z,9.50
2018-06-12T10:23:14.035Z,8.05
2018-06-12T10:25:57.505Z,9.70
2018-06-12T10:27:11.961Z,8.70
2018-06-12T10:28:23.574Z,8.53
2018-06-12T10:29:28.005Z,8.80
2018-06-12T10:30:33.062Z,9.08
2018-06-12T10:31:38.949Z,9.33
2018-06-12T10:32:43.561Z,10.03
2018-06-12T10:33:49.079Z,9.35
2018-06-12T10:34:53.243Z,10.48
2018-06-12T10:35:57.550Z,10.05
2018-06-12T10:37:02.056Z,9.10
2018-06-12T10:38:06.808Z,9.40
2018-06-12T10:39:11.293Z,9.48
2018-06-12T10:40:15.872Z,9.70
2018-06-12T10:41:20.436Z,9.55
2018-06-12T10:42:25.055Z,9.75
2018-06-12T10:43:29.456Z,8.15
2018-06-12T10:44:34.602Z,9.48
2018-06-12T10:45:39.090Z,10.60
2018-06-12T10:46:43.516Z,9.50
2018-06-12T10:47:49.475Z,9.65
2018-06-12T10:48:53.227Z,9.55
2018-06-12T10:49:57.693Z,10.35
2018-06-12T10:51:02.877Z,9.40
2018-06-12T10:52:07.206Z,9.68
2018-06-12T10:53:11.520Z,7.75
2018-06-12T10:54:15.831Z,9.90
2018-06-12T10:55:24.664Z,10.40
2018-06-12T10:56:29.993Z,9.48
2018-06-12T10:57:34.279Z,10.08
2018-06-12T10:58:38.916Z,8.75
2018-06-12T10:59:43.192Z,9.88
2018-06-12T11:00:47.504Z,10.08
2018-06-12T11:01:51.689Z,9.95
2018-06-12T11:02:55.985Z,9.65
2018-06-12T11:04:00.204Z,10.65
2018-06-12T11:05:04.504Z,9.70
2018-06-12T11:09:28.164Z,10.98
2018-06-12T11:10:32.597Z,9.98
2018-06-12T11:11:37.070Z,10.15
2018-06-12T11:12:41.484Z,10.15
2018-06-12T11:14:15.892Z,10.15
2018-06-12T11:15:22.554Z,10.58
2018-06-12T11:16:27.148Z,9.80
2018-06-12T11:17:36.324Z,10.05
2018-06-12T11:18:40.939Z,10.00
2018-06-12T11:19:45.602Z,9.33
2018-06-12T11:20:50.219Z,11.25
2018-06-12T11:21:54.976Z,10.15
2018-06-12T11:22:59.624Z,11.20
2018-06-12T11:24:55.267Z,10.00
2018-06-12T11:26:00.620Z,10.53
2018-06-12T11:27:05.502Z,10.23
2018-06-12T11:28:11.681Z,10.32
2018-06-12T11:29:16.356Z,11.63
2018-06-12T11:30:20.912Z,11.55
2018-06-12T11:31:29.581Z,11.03
2018-06-12T11:32:34.400Z,10.18
2018-06-12T11:33:42.802Z,9.20
2018-06-12T11:34:50.071Z,9.95
2018-06-12T11:35:54.782Z,10.13
2018-06-12T11:37:02.043Z,10.15
2018-06-12T11:38:06.871Z,10.18
2018-06-12T11:39:12.262Z,9.68
2018-06-12T11:40:17.493Z,10.88
2018-06-12T11:41:23.956Z,10.48
2018-06-12T11:42:43.417Z,10.60
2018-06-12T11:43:50.077Z,10.03
2018-06-12T11:45:16.342Z,10.65
2018-06-12T11:46:21.450Z,8.75
2018-06-12T11:47:26.076Z,8.98
2018-06-12T11:48:30.541Z,10.58
2018-06-12T11:49:35.178Z,8.90
2018-06-12T11:50:40.701Z,8.60
2018-06-12T11:51:45.754Z,10.08
2018-06-12T11:53:01.923Z,9.78
2018-06-12T11:54:06.653Z,9.65
2018-06-12T11:55:24.576Z,9.30
2018-06-12T11:56:30.302Z,8.73
2018-06-12T11:57:34.928Z,9.90
2018-06-12T11:58:40.549Z,8.70
2018-06-12T11:59:45.282Z,9.25
2018-06-12T12:00:50.308Z,9.35
2018-06-12T12:01:55.832Z,8.85
2018-06-12T12:03:01.001Z,9.60
2018-06-12T12:04:06.196Z,9.50
2018-06-12T12:05:11.624Z,8.25
2018-06-12T12:06:16.859Z,8.80
2018-06-12T12:07:21.979Z,7.97
2018-06-12T12:08:26.813Z,9.83
2018-06-12T12:09:34.650Z,8.08
2018-06-12T12:10:38.981Z,8.40
2018-06-12T12:11:45.506Z,7.95
2018-06-12T12:12:50.963Z,8.50
2018-06-12T12:13:56.303Z,9.03
2018-06-12T12:15:00.673Z,8.85
2018-06-12T12:16:05.550Z,8.50
2018-06-12T12:17:10.591Z,9.90
2018-06-12T12:18:14.897Z,8.75
2018-06-12T12:19:19.363Z,9.18
2018-06-12T12:20:23.737Z,9.55
2018-06-12T12:21:28.439Z,9.65
2018-06-12T12:22:32.698Z,8.98
2018-06-12T12:23:38.153Z,10.38
2018-06-12T12:24:43.104Z,10.50
2018-06-12T12:25:48.020Z,9.60
2018-06-12T12:26:53.093Z,11.05
2018-06-12T12:27:57.236Z,10.80
2018-06-12T12:29:01.944Z,10.18
2018-06-12T12:30:07.147Z,10.00
2018-06-12T12:31:11.786Z,10.08
2018-06-12T12:32:16.273Z,10.48
2018-06-12T12:33:20.998Z,9.83
2018-06-12T12:34:25.726Z,11.35
2018-06-12T12:35:29.988Z,11.00
2018-06-12T12:36:34.361Z,11.75
2018-06-12T12:37:39.396Z,11.38
2018-06-12T12:38:50.117Z,11.65
2018-06-12T12:39:56.260Z,12.10
2018-06-12T12:41:01.723Z,12.43
2018-06-12T12:42:07.366Z,11.00
2018-06-12T12:43:11.464Z,13.60
2018-06-12T12:44:15.776Z,12.40
2018-06-12T12:45:20.704Z,12.10
2018-06-12T12:46:24.606Z,11.97
2018-06-12T12:47:28.846Z,12.05
2018-06-12T12:48:33.257Z,11.68
2018-06-12T12:49:37.701Z,13.08
2018-06-12T12:50:42.200Z,12.95
2018-06-12T12:51:46.634Z,12.60
2018-06-12T12:52:52.103Z,12.55
2018-06-12T12:53:57.733Z,12.35
2018-06-12T12:55:02.874Z,12.37
2018-06-12T12:56:08.000Z,13.00
2018-06-12T12:57:13.157Z,13.60
2018-06-12T12:58:18.425Z,13.22
2018-06-12T12:59:22.331Z,13.58
2018-06-12T13:00:26.833Z,11.40
2018-06-12T13:01:36.110Z,13.65
2018-06-12T13:02:41.329Z,12.73
2018-06-12T13:03:46.457Z,13.25
2018-06-12T13:04:51.410Z,13.58
2018-06-12T13:05:56.138Z,11.95
2018-06-12T13:07:01.093Z,13.00
2018-06-12T13:08:06.064Z,12.18
2018-06-12T13:09:10.628Z,13.80
2018-06-12T13:10:15.094Z,13.43
2018-06-12T13:11:19.769Z,14.28
2018-06-12T13:14:20.797Z,13.70
2018-06-12T13:15:29.476Z,13.88
2018-06-12T13:16:34.116Z,13.72
2018-06-12T13:17:38.872Z,13.00
2018-06-12T13:18:43.526Z,13.85
2018-06-12T13:19:48.357Z,14.20
2018-06-12T13:20:52.992Z,12.75
2018-06-12T13:21:57.104Z,14.07
2018-06-12T13:23:01.989Z,14.23
2018-06-12T13:24:07.236Z,13.08
2018-06-12T13:25:12.087Z,12.43
2018-06-12T13:26:18.161Z,14.45
2018-06-12T13:27:22.711Z,14.35
2018-06-12T13:28:27.239Z,13.45
2018-06-12T13:29:32.463Z,14.85
2018-06-12T13:30:37.324Z,14.25
2018-06-12T13:31:42.113Z,16.42
2018-06-12T13:32:46.930Z,14.95
2018-06-12T13:33:51.775Z,16.07
2018-06-12T13:34:56.296Z,16.00
2018-06-12T13:36:01.138Z,14.60
2018-06-12T13:37:05.622Z,15.48
2018-06-12T13:38:10.429Z,18.20
2018-06-12T13:39:15.217Z,14.90
2018-06-12T13:40:19.917Z,16.57
2018-06-12T13:41:24.467Z,16.73
2018-06-12T13:42:29.307Z,18.57
2018-06-12T13:43:34.067Z,17.55
2018-06-12T13:44:38.927Z,19.77
2018-06-12T13:45:43.414Z,17.10
2018-06-12T13:46:47.315Z,17.75
2018-06-12T13:47:52.569Z,16.55
2018-06-12T13:48:57.718Z,15.65
2018-06-12T13:50:02.724Z,16.17
2018-06-12T13:51:08.483Z,19.52
2018-06-12T13:52:13.002Z,17.75
2018-06-12T13:53:17.469Z,17.35
2018-06-12T13:54:22.101Z,18.10
2018-06-12T13:55:26.889Z,18.85
2018-06-12T13:56:32.240Z,19.92
2018-06-12T13:57:37.039Z,19.00
2018-06-12T13:58:41.916Z,20.17
2018-06-12T13:59:53.125Z,20.05
2018-06-12T14:00:57.594Z,21.65
2018-06-12T14:02:02.750Z,25.35
2018-06-12T14:03:08.018Z,22.45
2018-06-12T14:04:17.793Z,23.80
2018-06-12T14:05:22.204Z,22.58
2018-06-12T14:06:27.131Z,22.70
2018-06-12T14:07:32.023Z,23.00
2018-06-12T14:08:36.711Z,20.48
2018-06-12T14:09:41.231Z,22.90
2018-06-12T14:10:45.543Z,21.10
2018-06-12T14:11:50.401Z,22.27
2018-06-12T14:12:55.124Z,20.55
2018-06-12T14:13:59.322Z,19.25
2018-06-12T14:15:04.232Z,18.98
2018-06-12T14:16:08.861Z,18.27
2018-06-12T14:17:13.755Z,20.32
2018-06-12T14:18:18.721Z,18.32
2018-06-12T14:19:23.279Z,17.70
2018-06-12T14:20:27.595Z,18.02
2018-06-12T14:21:32.280Z,19.42
2018-06-12T14:22:36.586Z,17.60
2018-06-12T14:23:40.799Z,18.32
2018-06-12T14:24:45.344Z,17.80